Time;durP1;ratioP1;P1;durP2;ratioP2;P2;SDS_P1;SDS_P2;PMS_P1;PMS_P2;Temp;Humidity;BMP_temperature;BMP_pressure;BME280_temperature;BME280_humidity;BME280_pressure;Samples;Min_cycle;Max_cycle;Signal;HPM_P1;HPM_P2
2021/07/31 00:00:59;;;;;;;1.63;0.80;;;;;;;19.68;31.35;100296.06;3573063;40;20445;-75
2021/07/31 00:03:27;;;;;;;2.50;1.02;;;;;;;19.67;31.68;100294.38;3575838;40;20044;-75
2021/07/31 00:05:56;;;;;;;2.78;1.10;;;;;;;19.67;31.48;100294.38;3573146;40;20152;-75
2021/07/31 00:08:24;;;;;;;2.50;0.90;;;;;;;19.65;31.51;100292.84;3571090;40;20048;-75
2021/07/31 00:10:53;;;;;;;3.28;0.90;;;;;;;19.64;31.90;100293.91;3578177;40;20143;-75
2021/07/31 00:13:22;;;;;;;2.17;0.80;;;;;;;19.61;31.75;100288.75;3575522;40;20041;-75
2021/07/31 00:15:50;;;;;;;2.38;0.75;;;;;;;19.57;31.37;100299.44;3575490;40;20063;-75
2021/07/31 00:18:19;;;;;;;1.55;0.80;;;;;;;19.54;31.84;100300.69;3578069;39;20060;-75
2021/07/31 00:20:47;;;;;;;1.17;0.80;;;;;;;19.52;31.89;100300.03;3576153;40;20131;-75
2021/07/31 00:23:15;;;;;;;1.65;0.75;;;;;;;19.50;31.67;100304.06;3578617;39;20149;-75
2021/07/31 00:25:43;;;;;;;2.83;1.35;;;;;;;19.47;31.54;100298.91;3573676;40;20048;-75
2021/07/31 00:28:12;;;;;;;1.58;0.68;;;;;;;19.47;32.13;100297.00;3573554;40;20278;-75
2021/07/31 00:30:40;;;;;;;1.95;0.90;;;;;;;19.46;31.96;100291.63;3570551;40;20053;-76
2021/07/31 00:33:08;;;;;;;2.90;1.00;;;;;;;19.44;32.33;100293.75;3576958;40;20412;-76
2021/07/31 00:35:36;;;;;;;2.90;1.08;;;;;;;19.42;31.86;100293.97;3575136;40;20049;-75
2021/07/31 00:38:04;;;;;;;2.40;0.80;;;;;;;19.41;31.97;100292.28;3576886;40;20029;-75
2021/07/31 00:40:48;;;;;;;2.92;1.23;;;;;;;19.41;32.15;100289.50;3576085;40;20343;-75
2021/07/31 00:43:17;;;;;;;1.85;0.73;;;;;;;19.39;32.61;100286.06;3574980;40;20052;-76
2021/07/31 00:45:45;;;;;;;1.55;0.90;;;;;;;19.38;32.66;100292.66;3573532;40;20049;-75
2021/07/31 00:48:14;;;;;;;2.70;1.10;;;;;;;19.37;32.68;100285.41;3576416;40;20079;-75
2021/07/31 00:50:42;;;;;;;3.65;1.45;;;;;;;19.37;32.59;100292.88;3575704;40;20065;-75
2021/07/31 00:53:11;;;;;;;1.80;0.93;;;;;;;19.36;32.73;100285.59;3571201;39;20044;-75
2021/07/31 00:55:40;;;;;;;2.22;1.08;;;;;;;19.35;32.80;100289.47;3575693;40;20317;-75
2021/07/31 00:58:09;;;;;;;2.80;1.05;;;;;;;19.33;32.84;100283.25;3583784;40;20279;-75
2021/07/31 01:00:43;;;;;;;2.22;1.08;;;;;;;19.31;32.44;100282.59;3584474;40;20059;-75
2021/07/31 01:03:12;;;;;;;4.78;1.10;;;;;;;19.27;32.92;100276.56;3577087;40;20037;-75
2021/07/31 01:05:41;;;;;;;2.90;1.02;;;;;;;19.27;32.75;100292.34;3575910;40;20071;-75
2021/07/31 01:08:12;;;;;;;2.38;1.00;;;;;;;19.25;32.58;100287.03;3581726;40;20118;-75
2021/07/31 01:11:05;;;;;;;2.42;0.90;;;;;;;19.22;32.83;100292.97;3577414;40;20052;-75
2021/07/31 01:13:34;;;;;;;2.90;0.90;;;;;;;19.23;33.24;100294.69;3576110;40;20097;-75
2021/07/31 01:16:07;;;;;;;1.48;0.82;;;;;;;19.26;33.29;100296.22;3576315;40;20144;-75
2021/07/31 01:18:38;;;;;;;2.90;0.95;;;;;;;19.23;32.67;100294.69;3577223;40;20037;-75
2021/07/31 01:21:30;;;;;;;2.03;0.80;;;;;;;19.25;32.98;100292.59;3575072;40;21227;-75
2021/07/31 01:23:59;;;;;;;3.20;1.20;;;;;;;19.22;33.42;100303.22;3574015;40;20033;-75
2021/07/31 01:26:28;;;;;;;2.33;0.98;;;;;;;19.24;33.43;100298.34;3568311;40;20571;-75
2021/07/31 01:28:56;;;;;;;1.85;1.00;;;;;;;19.22;33.12;100300.44;3574512;40;20044;-75
2021/07/31 01:31:24;;;;;;;3.33;0.95;;;;;;;19.22;33.01;100290.22;3575789;40;20056;-75
2021/07/31 01:33:52;;;;;;;2.00;1.00;;;;;;;19.22;32.94;100295.75;3570226;40;20316;-75
2021/07/31 01:36:22;;;;;;;2.60;1.20;;;;;;;19.24;33.33;100298.34;3567095;40;20400;-75
2021/07/31 01:38:50;;;;;;;1.38;0.70;;;;;;;19.19;33.56;100297.00;3572303;40;20041;-75
2021/07/31 01:41:20;;;;;;;1.95;1.00;;;;;;;19.18;33.37;100298.06;3567603;40;20053;-75
2021/07/31 01:43:48;;;;;;;1.70;0.90;;;;;;;19.16;33.56;100299.34;3575626;40;20048;-75
2021/07/31 01:46:17;;;;;;;1.23;0.77;;;;;;;19.14;33.22;100294.00;3566962;40;20381;-75
2021/07/31 01:48:45;;;;;;;2.33;0.93;;;;;;;19.15;33.54;100294.84;3573654;40;20283;-75
2021/07/31 01:51:17;;;;;;;2.75;1.40;;;;;;;19.12;33.21;100295.25;3573498;40;20117;-75
2021/07/31 01:53:46;;;;;;;2.65;0.93;;;;;;;19.13;33.75;100299.75;3577310;40;20488;-75
2021/07/31 01:56:15;;;;;;;2.55;1.00;;;;;;;19.08;33.37;100296.72;3577172;40;20104;-75
2021/07/31 01:58:43;;;;;;;1.98;0.90;;;;;;;19.07;33.43;100295.00;3576530;40;20029;-75
2021/07/31 02:01:12;;;;;;;3.13;1.20;;;;;;;19.04;33.37;100289.84;3576966;40;20052;-75
2021/07/31 02:03:42;;;;;;;5.15;1.13;;;;;;;19.03;34.01;100299.22;3576395;40;20097;-75
2021/07/31 02:06:28;;;;;;;2.60;1.08;;;;;;;19.00;33.99;100296.88;3576638;40;20055;-75
2021/07/31 02:08:59;;;;;;;2.88;1.10;;;;;;;18.99;33.60;100301.56;3584040;39;20122;-76
2021/07/31 02:11:27;;;;;;;2.28;1.00;;;;;;;18.96;33.50;100290.00;3576630;40;20068;-75
2021/07/31 02:14:02;;;;;;;2.28;0.90;;;;;;;18.94;34.09;100286.56;3572216;40;20123;-76
2021/07/31 02:16:46;;;;;;;4.13;1.10;;;;;;;18.96;33.89;100293.63;3577253;40;20056;-75
2021/07/31 02:19:18;;;;;;;2.97;1.20;;;;;;;18.91;34.22;100289.75;3576373;39;20111;-75
2021/07/31 02:22:09;;;;;;;3.22;0.90;;;;;;;18.88;34.27;100285.47;3571508;40;20651;-75
2021/07/31 02:24:57;;;;;;;2.33;1.00;;;;;;;18.89;33.75;100278.00;3571754;40;20139;-76
2021/07/31 02:27:45;;;;;;;2.17;0.95;;;;;;;18.87;34.00;100286.53;3576969;39;20298;-75
2021/07/31 02:30:13;;;;;;;2.38;1.08;;;;;;;18.89;33.87;100273.34;3576471;40;20063;-75
2021/07/31 02:32:41;;;;;;;2.72;1.00;;;;;;;18.87;34.45;100275.44;3575327;40;20390;-75
2021/07/31 02:35:11;;;;;;;2.38;0.98;;;;;;;18.89;34.10;100278.00;3570226;40;20145;-75
2021/07/31 02:38:02;;;;;;;2.67;1.00;;;;;;;18.81;33.87;100279.88;3574796;40;20029;-75
2021/07/31 02:40:33;;;;;;;1.95;0.95;;;;;;;18.85;34.29;100279.50;3575941;40;20337;-75
2021/07/31 02:43:02;;;;;;;3.78;1.30;;;;;;;18.82;33.84;100266.88;3577341;40;20047;-75
2021/07/31 02:45:30;;;;;;;2.58;1.00;;;;;;;18.80;33.84;100274.53;3569991;40;20068;-75
2021/07/31 02:48:02;;;;;;;3.08;1.13;;;;;;;18.76;33.98;100268.50;3574106;39;20386;-75
2021/07/31 02:50:31;;;;;;;2.75;1.25;;;;;;;18.75;34.11;100275.13;3575300;40;20045;-76
2021/07/31 02:53:08;;;;;;;2.53;1.00;;;;;;;18.72;34.55;100269.09;3576269;40;20045;-75
2021/07/31 02:55:38;;;;;;;2.97;1.10;;;;;;;18.74;34.64;100278.06;3571502;40;20291;-75
2021/07/31 02:58:07;;;;;;;2.30;0.98;;;;;;;18.72;34.50;100272.72;3576271;40;20051;-74
2021/07/31 03:00:35;;;;;;;1.35;0.85;;;;;;;18.73;34.66;100265.28;3578757;40;20056;-76
2021/07/31 03:03:04;;;;;;;3.13;1.17;;;;;;;18.74;34.71;100272.53;3573992;40;20032;-75
2021/07/31 03:05:32;;;;;;;1.65;0.88;;;;;;;18.72;34.55;100269.97;3575794;40;20049;-75
2021/07/31 03:08:06;;;;;;;1.80;1.00;;;;;;;18.72;34.59;100266.31;3573429;40;20102;-75
2021/07/31 03:10:34;;;;;;;3.30;1.10;;;;;;;18.70;34.66;100268.44;3576069;40;20398;-75
2021/07/31 03:13:04;;;;;;;2.75;0.95;;;;;;;18.72;34.24;100266.31;3572739;40;20034;-75
2021/07/31 03:15:32;;;;;;;1.98;1.10;;;;;;;18.66;34.15;100258.81;3575285;40;20049;-74
2021/07/31 03:18:00;;;;;;;2.60;1.20;;;;;;;18.64;34.22;100261.78;3576187;40;20131;-75
2021/07/31 03:20:29;;;;;;;2.50;1.05;;;;;;;18.62;34.65;100251.97;3575700;40;20053;-75
2021/07/31 03:23:01;;;;;;;2.03;1.33;;;;;;;18.59;34.30;100253.22;3575124;40;20033;-75
2021/07/31 03:25:30;;;;;;;2.70;1.00;;;;;;;18.60;34.58;100249.41;3571890;40;20048;-75
2021/07/31 03:27:58;;;;;;;3.17;0.95;;;;;;;18.61;34.41;100248.31;3572741;40;20318;-75
2021/07/31 03:30:50;;;;;;;2.08;1.17;;;;;;;18.61;34.29;100248.31;3570600;40;20037;-75
2021/07/31 03:33:19;;;;;;;3.53;1.20;;;;;;;18.62;34.22;100254.72;3574494;40;20063;-74
2021/07/31 03:35:47;;;;;;;2.30;1.30;;;;;;;18.61;34.53;100255.78;3573786;40;20055;-75
2021/07/31 03:38:37;;;;;;;2.17;1.20;;;;;;;18.59;34.86;100252.38;3574477;40;20112;-75
2021/07/31 03:41:05;;;;;;;2.33;1.00;;;;;;;18.60;34.37;100262.41;3575353;40;20065;-75
2021/07/31 03:43:38;;;;;;;1.50;0.98;;;;;;;18.61;34.91;100262.19;3573860;40;20618;-75
2021/07/31 03:46:10;;;;;;;2.33;1.10;;;;;;;18.60;34.67;100260.50;3574187;40;20369;-75
2021/07/31 03:48:39;;;;;;;3.72;1.27;;;;;;;18.59;34.46;100263.44;3575171;40;20425;-75
2021/07/31 03:51:08;;;;;;;3.42;1.30;;;;;;;18.59;34.42;100274.53;3574905;40;20042;-75
2021/07/31 03:53:41;;;;;;;2.47;1.20;;;;;;;18.58;34.84;100264.50;3572997;40;20042;-75
2021/07/31 03:56:09;;;;;;;2.28;1.13;;;;;;;18.57;34.49;100255.34;3572751;40;20111;-75
2021/07/31 03:58:41;;;;;;;2.20;1.25;;;;;;;18.54;35.01;100263.19;3575087;40;20085;-75
2021/07/31 04:01:10;;;;;;;2.50;1.08;;;;;;;18.57;34.61;100263.66;3573003;40;20329;-75
2021/07/31 04:03:40;;;;;;;2.45;1.10;;;;;;;18.55;35.06;100268.53;3575034;40;20021;-75
2021/07/31 04:06:08;;;;;;;3.50;1.20;;;;;;;18.53;34.67;100276.16;3572655;40;20085;-75
2021/07/31 04:09:00;;;;;;;3.25;1.05;;;;;;;18.51;35.27;100275.53;3569709;40;20118;-75
2021/07/31 04:11:46;;;;;;;3.83;1.40;;;;;;;18.50;34.56;100278.50;3576509;40;20051;-75
2021/07/31 04:14:33;;;;;;;3.20;1.27;;;;;;;18.49;34.97;100282.31;3571545;40;20130;-75
2021/07/31 04:17:11;;;;;;;1.90;1.10;;;;;;;18.47;35.09;100274.19;3575884;39;20056;-75
2021/07/31 04:19:41;;;;;;;2.38;1.10;;;;;;;18.46;34.81;100286.31;3578773;40;20041;-75
2021/07/31 04:22:09;;;;;;;3.28;1.30;;;;;;;18.42;35.25;100287.78;3570228;40;20065;-75
2021/07/31 04:24:40;;;;;;;4.15;1.65;;;;;;;18.39;35.49;100283.50;3577567;40;20053;-75
2021/07/31 04:27:08;;;;;;;1.63;1.00;;;;;;;18.37;35.52;100284.75;3575492;40;20085;-75
2021/07/31 04:29:36;;;;;;;1.95;1.17;;;;;;;18.36;35.54;100292.19;3577270;40;20492;-75
2021/07/31 04:32:05;;;;;;;3.13;1.10;;;;;;;18.35;35.58;100290.50;3576074;40;20577;-75
2021/07/31 04:34:34;;;;;;;2.75;1.20;;;;;;;18.36;35.82;100297.72;3578202;40;20060;-75
2021/07/31 04:37:03;;;;;;;1.75;0.90;;;;;;;18.32;36.02;100293.66;3576761;40;20576;-75
2021/07/31 04:39:31;;;;;;;3.35;1.20;;;;;;;18.31;35.81;100282.75;3577665;40;20092;-75
2021/07/31 04:41:59;;;;;;;2.05;1.00;;;;;;;18.30;35.95;100297.66;3575454;40;20081;-75
2021/07/31 04:44:27;;;;;;;2.53;1.20;;;;;;;18.29;36.10;100294.03;3583075;40;20443;-75
2021/07/31 04:46:55;;;;;;;2.33;1.13;;;;;;;18.28;35.67;100294.22;3568462;40;20318;-76
2021/07/31 04:49:23;;;;;;;2.47;1.00;;;;;;;18.28;35.97;100297.84;3576078;40;20084;-75
2021/07/31 04:51:53;;;;;;;3.05;1.23;;;;;;;18.31;35.66;100299.38;3574227;40;20049;-75
2021/07/31 04:54:21;;;;;;;1.95;1.20;;;;;;;18.29;36.32;100298.72;3577614;40;20051;-75
2021/07/31 04:56:49;;;;;;;2.25;1.10;;;;;;;18.29;35.91;100302.34;3576238;40;20061;-75
2021/07/31 04:59:19;;;;;;;3.00;1.40;;;;;;;18.30;36.17;100303.19;3570588;40;20041;-75
2021/07/31 05:01:47;;;;;;;2.42;1.10;;;;;;;18.29;36.02;100305.09;3569576;40;20058;-75
2021/07/31 05:04:15;;;;;;;3.65;1.30;;;;;;;18.30;35.96;100317.91;3570656;40;20122;-75
2021/07/31 05:06:43;;;;;;;2.22;1.20;;;;;;;18.29;36.00;100299.56;3573152;40;20053;-75
2021/07/31 05:09:14;;;;;;;2.38;1.20;;;;;;;18.31;36.03;100311.31;3574314;40;20039;-75
2021/07/31 05:11:42;;;;;;;3.30;1.20;;;;;;;18.28;36.35;100308.06;3577656;40;20116;-75
2021/07/31 05:14:13;;;;;;;2.45;1.10;;;;;;;18.28;36.10;100308.94;3577469;40;20480;-75
2021/07/31 05:16:41;;;;;;;3.60;1.10;;;;;;;18.24;36.62;100304.84;3573402;40;20055;-75
2021/07/31 05:19:09;;;;;;;2.15;1.30;;;;;;;18.26;36.44;100312.97;3575485;39;20045;-75
2021/07/31 05:21:37;;;;;;;3.38;1.17;;;;;;;18.25;36.72;100322.31;3577719;40;20059;-75
2021/07/31 05:24:06;;;;;;;3.45;1.33;;;;;;;18.25;36.79;100319.56;3577743;40;20073;-75
2021/07/31 05:26:37;;;;;;;2.45;1.30;;;;;;;18.26;36.53;100316.59;3576307;40;20053;-75
2021/07/31 05:29:06;;;;;;;3.17;1.23;;;;;;;18.26;36.92;100324.91;3575606;40;20041;-75
2021/07/31 05:31:34;;;;;;;3.00;1.40;;;;;;;18.26;36.31;100318.50;3573188;40;20141;-75
2021/07/31 05:34:02;;;;;;;2.60;1.52;;;;;;;18.25;36.68;100322.31;3574718;40;20029;-75
2021/07/31 05:36:35;;;;;;;3.10;1.30;;;;;;;18.24;36.89;100321.47;3576217;40;20424;-75
2021/07/31 05:39:03;;;;;;;3.25;1.40;;;;;;;18.21;36.97;100332.91;3576052;40;20040;-75
2021/07/31 05:41:31;;;;;;;3.70;1.30;;;;;;;18.22;36.82;100314.41;3570897;40;20057;-75
2021/07/31 05:44:00;;;;;;;2.85;1.30;;;;;;;18.22;36.49;100320.78;3575634;40;20529;-75
2021/07/31 05:46:28;;;;;;;3.25;1.23;;;;;;;18.19;36.55;100326.75;3574368;40;20057;-75
2021/07/31 05:48:56;;;;;;;4.05;1.27;;;;;;;18.18;36.61;100332.47;3577205;39;20150;-75
2021/07/31 05:51:24;;;;;;;3.38;1.35;;;;;;;18.18;36.72;100326.94;3574213;40;20131;-75
2021/07/31 05:53:52;;;;;;;4.60;1.70;;;;;;;18.16;37.20;100329.03;3577313;40;20447;-75
2021/07/31 05:56:20;;;;;;;3.38;1.48;;;;;;;18.12;36.78;100323.00;3574173;40;20063;-75
2021/07/31 05:58:48;;;;;;;3.55;1.48;;;;;;;18.10;36.73;100336.22;3572614;40;20123;-75
2021/07/31 06:01:17;;;;;;;2.10;0.98;;;;;;;18.09;36.86;100326.19;3571632;40;20065;-75
2021/07/31 06:03:47;;;;;;;2.97;1.30;;;;;;;18.07;37.00;100336.59;3576614;40;20041;-75
2021/07/31 06:06:15;;;;;;;3.90;1.55;;;;;;;18.05;37.06;100324.84;3570674;40;20092;-75
2021/07/31 06:08:43;;;;;;;2.47;1.10;;;;;;;18.06;37.07;100332.09;3575951;40;20041;-75
2021/07/31 06:11:11;;;;;;;3.05;1.33;;;;;;;18.03;37.57;100341.59;3576895;40;20407;-75
2021/07/31 06:13:41;;;;;;;3.00;1.33;;;;;;;18.04;37.28;100336.97;3576090;40;20045;-75
2021/07/31 06:16:10;;;;;;;2.80;1.38;;;;;;;18.03;37.43;100332.47;3575068;40;20048;-76
2021/07/31 06:18:41;;;;;;;3.55;1.45;;;;;;;18.07;37.59;100336.59;3573932;40;20123;-75
2021/07/31 06:21:15;;;;;;;3.05;1.40;;;;;;;18.09;38.20;100341.94;3577639;40;20372;-75
2021/07/31 06:23:43;;;;;;;3.90;1.35;;;;;;;18.09;38.22;100341.94;3577341;40;20479;-75
2021/07/31 06:26:11;;;;;;;2.85;1.40;;;;;;;18.13;38.08;100329.41;3570000;40;20149;-75
2021/07/31 06:28:39;;;;;;;4.28;1.50;;;;;;;18.15;38.17;100339.25;3576209;40;20103;-75
2021/07/31 06:31:08;;;;;;;2.78;1.33;;;;;;;18.19;38.07;100340.59;3572436;40;20110;-75
2021/07/31 06:33:36;;;;;;;2.75;1.38;;;;;;;18.22;37.45;100350.38;3574443;40;20321;-75
2021/07/31 06:36:05;;;;;;;2.30;1.45;;;;;;;18.25;37.45;100339.78;3575572;40;20078;-75
2021/07/31 06:38:33;;;;;;;2.55;1.60;;;;;;;18.25;37.96;100350.88;3573523;40;20073;-75
2021/07/31 06:41:01;;;;;;;2.17;1.15;;;;;;;18.26;37.49;100344.28;3569909;40;20061;-74
2021/07/31 06:43:29;;;;;;;3.20;1.48;;;;;;;18.28;38.04;100349.59;3574000;40;20041;-75
2021/07/31 06:45:57;;;;;;;2.50;1.40;;;;;;;18.32;37.53;100356.47;3576804;40;20049;-75
2021/07/31 06:48:25;;;;;;;3.28;1.30;;;;;;;18.32;37.80;100348.16;3575656;40;20099;-74
2021/07/31 06:50:53;;;;;;;3.25;1.40;;;;;;;18.35;37.66;100345.03;3575985;40;20068;-74
2021/07/31 06:53:23;;;;;;;2.75;1.25;;;;;;;18.41;38.01;100356.16;3574052;40;20041;-71
2021/07/31 06:55:51;;;;;;;2.88;1.30;;;;;;;18.43;38.31;100365.16;3571671;40;20069;-72
2021/07/31 06:58:19;;;;;;;3.22;1.17;;;;;;;18.55;38.32;100353.53;3574794;40;20045;-68
2021/07/31 07:00:48;;;;;;;3.45;1.20;;;;;;;18.67;39.03;100371.38;3577016;40;20096;-69
2021/07/31 07:03:16;;;;;;;3.65;1.15;;;;;;;18.80;38.27;100375.16;3576635;40;20126;-69
2021/07/31 07:05:44;;;;;;;4.85;1.58;;;;;;;18.95;38.25;100368.66;3574766;40;20321;-70
2021/07/31 07:08:12;;;;;;;2.03;1.25;;;;;;;19.11;38.58;100372.03;3575953;39;20045;-70
2021/07/31 07:10:41;;;;;;;3.20;1.23;;;;;;;19.27;37.86;100364.47;3571584;40;20075;-70
2021/07/31 07:13:09;;;;;;;4.68;1.48;;;;;;;19.39;37.93;100383.13;3574730;40;20051;-70
2021/07/31 07:15:37;;;;;;;3.58;1.42;;;;;;;19.52;37.63;100385.16;3576515;40;20057;-70
2021/07/31 07:18:05;;;;;;;3.70;1.30;;;;;;;19.62;37.23;100382.03;3570992;40;20406;-71
2021/07/31 07:20:33;;;;;;;3.58;1.27;;;;;;;19.70;37.09;100370.78;3576343;40;20064;-69
2021/07/31 07:23:04;;;;;;;5.25;1.38;;;;;;;19.78;36.34;100378.94;3571561;40;20088;-70
2021/07/31 07:25:32;;;;;;;4.10;1.50;;;;;;;19.85;36.11;100374.28;3572054;40;20049;-70
2021/07/31 07:28:02;;;;;;;3.78;1.75;;;;;;;19.86;35.94;100379.63;3574441;40;20037;-69
2021/07/31 07:30:31;;;;;;;3.83;1.50;;;;;;;19.88;35.95;100388.63;3581989;40;20119;-69
2021/07/31 07:33:00;;;;;;;6.43;1.30;;;;;;;19.88;35.62;100385.00;3577690;39;20150;-70
2021/07/31 07:35:28;;;;;;;4.10;1.50;;;;;;;19.85;36.02;100380.69;3574328;40;20052;-70
2021/07/31 07:37:56;;;;;;;3.90;1.27;;;;;;;19.83;35.54;100382.84;3574661;40;20271;-70
2021/07/31 07:40:24;;;;;;;2.53;1.30;;;;;;;19.78;36.16;100382.56;3576382;40;20134;-70
2021/07/31 07:42:52;;;;;;;2.78;1.30;;;;;;;19.74;35.94;100388.75;3574546;40;20045;-70
2021/07/31 07:45:22;;;;;;;2.92;1.30;;;;;;;19.75;36.05;100387.69;3575070;40;20057;-70
2021/07/31 07:47:50;;;;;;;3.20;1.40;;;;;;;19.74;36.01;100386.84;3575377;39;21185;-77
2021/07/31 07:50:18;;;;;;;3.10;1.20;;;;;;;19.74;36.35;100389.63;3584420;40;20060;-76
2021/07/31 07:52:46;;;;;;;2.80;1.42;;;;;;;19.75;35.79;100387.69;3579442;40;20048;-76
2021/07/31 07:55:14;;;;;;;5.30;1.70;;;;;;;19.74;35.79;100385.97;3571711;40;20112;-75
2021/07/31 07:57:42;;;;;;;2.47;1.50;;;;;;;19.74;36.43;100388.75;3574579;40;20352;-76
2021/07/31 08:00:11;;;;;;;3.83;1.70;;;;;;;19.75;36.23;100374.69;3577772;40;20131;-76
2021/07/31 08:02:44;;;;;;;4.45;1.52;;;;;;;19.73;36.26;100392.59;3575877;40;20041;-76
2021/07/31 08:05:13;;;;;;;3.40;1.60;;;;;;;19.71;36.60;100381.69;3574998;40;20061;-76
2021/07/31 08:07:43;;;;;;;3.03;1.52;;;;;;;19.75;36.94;100384.91;3572695;40;20389;-77
2021/07/31 08:10:12;;;;;;;2.97;1.45;;;;;;;19.79;36.94;100380.66;3574893;40;20053;-76
2021/07/31 08:12:40;;;;;;;3.33;1.60;;;;;;;19.87;36.64;100391.59;3576877;39;20398;-76
2021/07/31 08:15:09;;;;;;;2.75;1.40;;;;;;;19.94;36.14;100381.38;3576260;40;20085;-77
2021/07/31 08:17:38;;;;;;;2.85;1.42;;;;;;;19.99;36.19;100397.44;3575983;39;20068;-76
2021/07/31 08:20:09;;;;;;;3.28;1.35;;;;;;;20.06;36.23;100390.88;3573906;40;20110;-76
2021/07/31 08:22:37;;;;;;;3.75;1.63;;;;;;;20.12;35.72;100389.16;3570549;40;20053;-76
2021/07/31 08:25:08;;;;;;;3.65;1.60;;;;;;;20.18;35.45;100399.44;3580868;40;20586;-76
2021/07/31 08:27:36;;;;;;;3.42;1.50;;;;;;;20.20;35.67;100387.06;3577253;40;20131;-76
2021/07/31 08:30:06;;;;;;;3.28;1.50;;;;;;;20.22;35.43;100398.03;3573053;40;20064;-76
2021/07/31 08:32:34;;;;;;;4.55;1.50;;;;;;;20.20;34.96;100394.53;3569286;40;20123;-76
2021/07/31 08:35:03;;;;;;;2.10;1.10;;;;;;;20.17;34.94;100381.94;3574307;40;20410;-76
2021/07/31 08:37:37;;;;;;;2.67;1.50;;;;;;;20.19;35.34;100395.59;3575379;40;20081;-76
2021/07/31 08:40:09;;;;;;;3.42;1.40;;;;;;;20.18;34.97;100405.00;3571980;40;20448;-76
2021/07/31 08:42:37;;;;;;;3.38;1.40;;;;;;;20.15;34.98;100394.31;3574403;40;20122;-76
2021/07/31 08:45:07;;;;;;;4.32;1.50;;;;;;;20.14;35.40;100404.56;3572821;40;20137;-76
2021/07/31 08:47:37;;;;;;;4.13;1.50;;;;;;;20.15;34.99;100406.28;3575758;40;20360;-76
2021/07/31 08:50:08;;;;;;;4.28;1.60;;;;;;;20.17;34.53;100406.91;3577388;40;20328;-76
2021/07/31 08:52:37;;;;;;;4.32;1.38;;;;;;;20.15;35.12;100405.44;3576855;39;20033;-76
2021/07/31 08:55:06;;;;;;;3.22;1.45;;;;;;;20.11;34.59;100398.56;3570101;40;20429;-76
2021/07/31 08:57:34;;;;;;;3.60;1.60;;;;;;;20.07;34.74;100408.38;3572236;40;20696;-76
2021/07/31 09:00:04;;;;;;;4.55;1.55;;;;;;;20.01;34.46;100412.81;3569305;40;20064;-76
2021/07/31 09:02:41;;;;;;;3.50;1.58;;;;;;;19.96;34.97;100407.03;3573518;40;20134;-76
2021/07/31 09:05:11;;;;;;;5.35;1.40;;;;;;;19.89;35.09;100406.13;3571439;40;20140;-76
2021/07/31 09:07:42;;;;;;;3.92;1.58;;;;;;;19.85;35.24;100405.69;3576685;40;20045;-75
2021/07/31 09:10:23;;;;;;;3.90;1.50;;;;;;;19.85;34.92;100421.47;3570301;40;20060;-76
2021/07/31 09:12:55;;;;;;;2.78;1.50;;;;;;;19.82;35.44;100419.13;3574201;40;20041;-76
2021/07/31 09:15:31;;;;;;;5.28;1.50;;;;;;;19.82;35.66;100411.66;3578383;40;20072;-76
2021/07/31 09:18:26;;;;;;;3.53;1.40;;;;;;;19.84;35.88;100414.22;3576340;40;20056;-75
2021/07/31 09:21:04;;;;;;;2.60;1.50;;;;;;;19.86;35.33;100426.81;3573492;40;20056;-76
2021/07/31 09:23:45;;;;;;;3.20;1.40;;;;;;;19.87;35.16;100417.44;3570898;40;20051;-77
2021/07/31 09:26:16;;;;;;;2.83;1.30;;;;;;;19.86;35.60;100414.88;3574963;40;20065;-76
2021/07/31 09:28:45;;;;;;;4.03;1.42;;;;;;;19.87;35.39;100420.22;3575787;40;20386;-76
2021/07/31 09:31:16;;;;;;;2.85;1.20;;;;;;;19.88;35.93;100409.97;3575636;40;20395;-76
2021/07/31 09:33:47;;;;;;;2.97;1.65;;;;;;;19.90;35.52;100419.81;3577066;40;20044;-76
2021/07/31 09:36:15;;;;;;;4.95;1.63;;;;;;;19.94;35.67;100417.47;3574117;40;20114;-77
2021/07/31 09:38:47;;;;;;;2.97;1.40;;;;;;;19.98;35.62;100429.03;3574960;40;20111;-76
2021/07/31 09:41:28;;;;;;;2.83;1.40;;;;;;;20.00;35.45;100422.22;3577797;40;20061;-76
2021/07/31 09:44:08;;;;;;;3.42;1.50;;;;;;;20.07;36.32;100430.59;3577185;40;20412;-76
2021/07/31 09:46:39;;;;;;;6.05;1.42;;;;;;;20.12;35.66;100419.72;3575715;40;20049;-75
2021/07/31 09:49:08;;;;;;;2.92;1.20;;;;;;;20.19;35.46;100428.94;3575964;40;20286;-76
2021/07/31 09:51:38;;;;;;;3.03;1.38;;;;;;;20.24;35.64;100434.78;3576339;40;20045;-76
2021/07/31 09:54:10;;;;;;;2.88;1.17;;;;;;;20.34;35.39;100438.00;3574249;40;20070;-76
2021/07/31 09:56:44;;;;;;;2.55;1.30;;;;;;;20.40;35.40;100441.91;3576011;40;20070;-76
2021/07/31 09:59:17;;;;;;;2.88;1.30;;;;;;;20.46;35.23;100447.47;3575124;40;20073;-76
2021/07/31 10:01:48;;;;;;;3.10;1.20;;;;;;;20.50;35.28;100436.81;3576464;40;20052;-76
2021/07/31 10:04:16;;;;;;;2.42;1.00;;;;;;;20.50;34.87;100440.44;3577056;40;20041;-76
2021/07/31 10:06:45;;;;;;;2.15;1.15;;;;;;;20.53;34.69;100444.72;3576961;40;20053;-76
2021/07/31 10:09:14;;;;;;;2.50;1.30;;;;;;;20.56;34.77;100434.06;3576535;39;20037;-76
2021/07/31 10:11:44;;;;;;;3.05;1.40;;;;;;;20.57;34.43;100429.38;3576257;40;20049;-76
2021/07/31 10:14:13;;;;;;;1.98;1.30;;;;;;;20.60;34.81;100440.03;3576624;40;20045;-76
2021/07/31 10:16:47;;;;;;;2.78;1.20;;;;;;;20.65;34.74;100440.28;3575877;40;20056;-76
2021/07/31 10:19:16;;;;;;;2.28;1.10;;;;;;;20.63;34.77;100440.50;3576962;40;20049;-76
2021/07/31 10:21:49;;;;;;;2.60;1.13;;;;;;;20.69;34.68;100430.47;3573728;40;20068;-76
2021/07/31 10:24:20;;;;;;;1.98;1.10;;;;;;;20.68;34.28;100437.06;3576149;40;20489;-76
2021/07/31 10:27:19;;;;;;;1.98;1.10;;;;;;;20.66;34.31;100448.44;3577466;40;20049;-76
2021/07/31 10:29:48;;;;;;;3.28;1.30;;;;;;;20.66;34.58;100437.31;3571252;40;20077;-76
2021/07/31 10:32:40;;;;;;;3.00;1.17;;;;;;;20.66;34.07;100459.56;3573511;40;20039;-76
2021/07/31 10:35:09;;;;;;;3.53;1.40;;;;;;;20.63;34.02;100454.41;3574917;40;20069;-76
2021/07/31 10:37:46;;;;;;;2.28;1.40;;;;;;;20.64;33.57;100452.47;3571982;40;20033;-76
2021/07/31 10:40:52;;;;;;;2.08;1.25;;;;;;;20.59;33.88;100444.75;3577305;40;20052;-76
2021/07/31 10:43:23;;;;;;;3.30;1.40;;;;;;;20.57;33.92;100452.47;3575980;40;20103;-76
2021/07/31 10:46:20;;;;;;;2.33;1.10;;;;;;;20.58;33.90;100456.09;3573508;40;20410;-76
2021/07/31 10:48:48;;;;;;;2.28;1.17;;;;;;;20.58;34.42;100444.97;3581941;40;20045;-76
2021/07/31 10:51:41;;;;;;;2.40;1.15;;;;;;;20.60;34.49;100445.59;3577178;40;20072;-76
2021/07/31 10:54:09;;;;;;;2.97;1.38;;;;;;;20.59;34.58;100447.53;3570710;40;20407;-76
2021/07/31 10:56:57;;;;;;;2.10;1.30;;;;;;;20.67;34.50;100452.91;3577207;40;20029;-76
2021/07/31 10:59:27;;;;;;;1.77;1.13;;;;;;;20.70;34.66;100452.50;3568903;40;20052;-76
2021/07/31 11:02:33;;;;;;;3.78;1.20;;;;;;;20.76;33.93;100447.16;3574167;39;20045;-76
2021/07/31 11:05:01;;;;;;;2.20;1.30;;;;;;;20.78;34.69;100454.22;3575305;40;20450;-76
2021/07/31 11:07:29;;;;;;;2.22;1.30;;;;;;;20.87;34.65;100449.34;3576198;40;20147;-76
2021/07/31 11:10:39;;;;;;;2.75;1.20;;;;;;;20.96;34.16;100450.88;3573540;40;20462;-76
2021/07/31 11:13:08;;;;;;;2.65;1.25;;;;;;;21.03;34.33;100451.75;3572783;40;20056;-77
2021/07/31 11:15:37;;;;;;;2.65;1.17;;;;;;;21.15;34.07;100452.00;3571322;40;20147;-76
2021/07/31 11:18:06;;;;;;;2.00;1.10;;;;;;;21.22;34.10;100455.66;3576005;39;20382;-76
2021/07/31 11:20:36;;;;;;;3.67;1.55;;;;;;;21.36;33.99;100461.00;3574381;40;20064;-75
2021/07/31 11:23:07;;;;;;;3.70;1.30;;;;;;;21.48;33.96;100454.81;3572336;40;20329;-76
2021/07/31 11:25:36;;;;;;;1.85;1.20;;;;;;;21.58;33.55;100453.31;3577559;40;20060;-75
2021/07/31 11:28:08;;;;;;;3.00;1.30;;;;;;;21.69;33.79;100449.91;3572804;40;20045;-76
2021/07/31 11:30:39;;;;;;;;;;;;;;;21.51;34.15;100459.94;3577778;40;20423;-76
2021/07/31 11:33:22;;;;;;;4.65;1.40;;;;;;;21.88;33.29;100450.09;3577798;40;19939;-76
2021/07/31 11:35:51;;;;;;;1.83;1.27;;;;;;;21.98;33.15;100448.59;3571865;40;20403;-75
2021/07/31 11:38:35;;;;;;;1.98;1.20;;;;;;;22.11;33.27;100454.13;3573946;40;20036;-75
2021/07/31 11:41:05;;;;;;;2.13;1.23;;;;;;;22.19;32.61;100448.31;3572760;40;20065;-75
2021/07/31 11:43:50;;;;;;;3.47;1.40;;;;;;;22.29;32.81;100447.91;3572397;40;20047;-76